Time;durP1;ratioP1;P1;durP2;ratioP2;P2;SDS_P1;SDS_P2;PMS_P1;PMS_P2;Temp;Humidity;BMP_temperature;BMP_pressure;BME280_temperature;BME280_humidity;BME280_pressure;Samples;Min_cycle;Max_cycle;Signal;HPM_P1;HPM_P2
2022/12/19 00:01:48;;;;;;;19.63;7.63;;;;;;;9.80;69.07;100893.97;6011394;23;20204;-87
2022/12/19 00:04:14;;;;;;;18.90;7.90;;;;;;;9.80;69.21;100893.97;6011477;23;20189;-87
2022/12/19 00:06:40;;;;;;;19.83;8.90;;;;;;;9.86;68.46;100896.44;6010908;23;20230;-87
2022/12/19 00:09:06;;;;;;;15.67;7.30;;;;;;;9.75;69.07;100906.28;5986655;23;20170;-87
2022/12/19 00:11:32;;;;;;;26.37;9.23;;;;;;;9.69;67.67;100903.81;6011036;23;20533;-87
2022/12/19 00:13:58;;;;;;;16.53;8.13;;;;;;;9.67;68.20;100914.28;6011434;23;20158;-87
2022/12/19 00:16:28;;;;;;;18.77;7.57;;;;;;;9.61;67.52;100918.81;6011033;23;20218;-87
2022/12/19 00:18:56;;;;;;;20.93;9.20;;;;;;;9.51;68.16;100927.75;6011402;23;20139;-87
2022/12/19 00:21:24;;;;;;;20.43;9.20;;;;;;;9.60;67.62;100927.53;6012602;23;20154;-88
2022/12/19 00:23:51;;;;;;;23.37;9.13;;;;;;;9.53;67.96;100941.66;5988037;23;20209;-87
2022/12/19 00:26:21;;;;;;;21.73;9.40;;;;;;;9.57;67.69;100938.94;6013359;23;20203;-87
2022/12/19 00:28:50;;;;;;;14.63;7.33;;;;;;;9.56;68.16;100941.59;6013089;23;20209;-87
2022/12/19 00:31:17;;;;;;;18.63;8.53;;;;;;;9.45;67.41;100948.78;6012866;23;20237;-87
2022/12/19 00:33:43;;;;;;;24.30;8.57;;;;;;;9.28;68.56;100947.34;5987870;23;20158;-88
2022/12/19 00:36:12;;;;;;;21.47;7.90;;;;;;;9.31;69.16;100950.78;6012847;23;20159;-87
2022/12/19 00:38:38;;;;;;;24.93;7.80;;;;;;;9.13;69.33;100952.88;6013325;23;20162;-87
2022/12/19 00:41:07;;;;;;;18.60;8.90;;;;;;;9.21;69.74;100944.88;5988494;23;20165;-87
2022/12/19 00:43:33;;;;;;;19.17;7.67;;;;;;;9.19;69.57;100951.91;6012966;23;20165;-88
2022/12/19 00:46:02;;;;;;;19.30;8.87;;;;;;;9.12;69.93;100952.88;6012668;23;20154;-87
2022/12/19 00:48:27;;;;;;;17.67;7.17;;;;;;;9.10;69.23;100949.44;6012652;23;20151;-87
2022/12/19 00:51:09;;;;;;;16.63;7.37;;;;;;;8.93;69.53;100952.34;6012964;23;20158;-87
2022/12/19 00:53:34;;;;;;;21.27;8.00;;;;;;;8.99;70.06;100954.84;6013314;23;20145;-87
2022/12/19 00:56:05;;;;;;;17.73;7.33;;;;;;;8.96;70.61;100951.44;6012934;23;20538;-87
2022/12/19 00:58:31;;;;;;;14.40;6.67;;;;;;;8.96;70.68;100954.91;5988036;23;20240;-88
2022/12/19 01:00:57;;;;;;;16.90;6.33;;;;;;;8.78;71.00;100949.97;5988281;23;20186;-87
2022/12/19 01:03:23;;;;;;;20.53;7.73;;;;;;;8.81;70.38;100949.94;5988418;23;20577;-87
2022/12/19 01:05:50;;;;;;;13.90;7.13;;;;;;;8.84;70.19;100947.28;6013090;23;20546;-87
2022/12/19 01:08:16;;;;;;;15.67;6.33;;;;;;;8.59;70.36;100949.41;5988478;23;20168;-88
2022/12/19 01:10:46;;;;;;;11.67;5.93;;;;;;;8.38;71.21;100948.88;6012847;23;20157;-87
2022/12/19 01:13:12;;;;;;;13.40;6.27;;;;;;;8.60;70.83;100947.66;5987683;23;20181;-88
2022/12/19 01:15:40;;;;;;;15.60;6.10;;;;;;;8.56;70.35;100949.47;5987687;23;20188;-88
2022/12/19 01:18:08;;;;;;;19.00;6.37;;;;;;;8.60;70.70;100958.97;5988349;23;20157;-88
2022/12/19 01:20:40;;;;;;;15.60;6.67;;;;;;;8.54;70.23;100951.22;6011133;23;20617;-88
2022/12/19 01:23:07;;;;;;;11.70;5.97;;;;;;;8.63;69.21;100950.22;6012433;23;20146;-88
2022/12/19 01:25:37;;;;;;;16.17;6.27;;;;;;;8.74;70.03;100948.31;5987938;23;20693;-87
2022/12/19 01:28:04;;;;;;;19.97;5.90;;;;;;;8.53;69.68;100946.03;5988075;23;20650;-88
2022/12/19 01:30:30;;;;;;;11.83;5.17;;;;;;;8.74;68.91;100948.31;5987779;23;20178;-88
2022/12/19 01:32:57;;;;;;;13.33;5.50;;;;;;;8.82;68.60;100949.06;5987998;23;20173;-88
2022/12/19 01:35:23;;;;;;;11.67;5.77;;;;;;;8.89;68.73;100945.44;5987925;23;20153;-88
2022/12/19 01:37:50;;;;;;;11.47;4.97;;;;;;;8.71;68.94;100943.13;6012248;23;20160;-88
2022/12/19 01:40:16;;;;;;;7.47;4.37;;;;;;;8.72;68.57;100950.09;6012885;23;20526;-88
2022/12/19 01:42:41;;;;;;;13.07;5.03;;;;;;;8.54;67.74;100953.84;6012253;23;20224;-88
2022/12/19 01:45:09;;;;;;;9.23;4.30;;;;;;;8.62;68.27;100944.13;6012403;23;20184;-88
2022/12/19 01:47:45;;;;;;;11.20;4.10;;;;;;;8.48;67.67;100951.34;6012216;23;20687;-88
2022/12/19 01:50:14;;;;;;;12.67;4.47;;;;;;;8.25;67.77;100949.91;6012206;23;20555;-88
2022/12/19 01:52:41;;;;;;;12.43;4.27;;;;;;;8.16;67.37;100945.69;6012120;23;20189;-88
2022/12/19 01:55:07;;;;;;;8.23;3.80;;;;;;;8.22;66.45;100939.50;5987502;23;20519;-88
2022/12/19 01:57:33;;;;;;;9.77;3.87;;;;;;;8.44;66.38;100940.94;5987664;23;20168;-88
2022/12/19 02:00:00;;;;;;;6.40;3.33;;;;;;;8.32;66.42;100941.13;5987865;23;20592;-88
2022/12/19 02:02:34;;;;;;;12.00;3.63;;;;;;;8.37;66.61;100936.69;5987834;23;20595;-88
2022/12/19 02:05:00;;;;;;;12.07;3.83;;;;;;;8.47;66.23;100930.44;6012354;23;20519;-88
2022/12/19 02:07:27;;;;;;;11.07;4.20;;;;;;;8.19;65.57;100931.72;5987970;23;20645;-88
2022/12/19 02:09:54;;;;;;;6.43;3.80;;;;;;;8.32;66.85;100933.28;5987666;23;20163;-88
2022/12/19 02:12:22;;;;;;;14.27;4.33;;;;;;;8.22;65.65;100934.28;5987717;23;20168;-88
2022/12/19 02:14:48;;;;;;;14.63;3.93;;;;;;;8.33;65.25;100935.03;5987334;23;20196;-88
2022/12/19 02:17:44;;;;;;;9.73;3.63;;;;;;;8.43;64.55;100939.22;6011901;23;20154;-88
2022/12/19 02:20:40;;;;;;;9.47;3.40;;;;;;;8.48;65.17;100943.50;5987400;23;20473;-88
2022/12/19 02:23:30;;;;;;;6.57;2.87;;;;;;;8.64;64.73;100946.75;6011895;23;20154;-89
2022/12/19 02:26:36;;;;;;;7.03;3.30;;;;;;;8.69;63.57;100947.53;6012224;23;20153;-88
2022/12/19 02:29:14;;;;;;;7.07;4.23;;;;;;;8.67;64.62;100949.31;5987283;23;20241;-88
2022/12/19 02:31:52;;;;;;;7.57;3.07;;;;;;;8.76;64.16;100962.22;6012298;23;20171;-89
2022/12/19 02:34:31;;;;;;;8.47;3.60;;;;;;;8.79;64.48;100963.91;6012108;23;20135;-89
2022/12/19 02:37:19;;;;;;;8.97;4.27;;;;;;;8.83;64.08;100969.06;6012532;23;20142;-89
2022/12/19 02:40:18;;;;;;;7.80;3.73;;;;;;;8.92;64.09;100968.06;6011159;23;20595;-89
2022/12/19 02:42:58;;;;;;;7.30;3.63;;;;;;;8.94;63.45;100968.88;5977741;23;20162;-88
2022/12/19 02:45:28;;;;;;;8.13;3.40;;;;;;;8.92;63.52;100962.81;6011562;23;20166;-89
2022/12/19 02:47:54;;;;;;;7.97;3.30;;;;;;;8.99;63.84;100980.13;6011608;23;20235;-89
2022/12/19 02:50:20;;;;;;;9.23;3.30;;;;;;;9.06;62.42;100980.03;6011872;23;20153;-89
2022/12/19 02:52:46;;;;;;;7.17;3.17;;;;;;;9.04;63.18;100989.63;6012168;23;20153;-88
2022/12/19 02:55:17;;;;;;;11.27;3.23;;;;;;;9.05;62.86;100986.16;6011821;23;20178;-89
2022/12/19 02:57:55;;;;;;;11.83;3.70;;;;;;;9.08;62.58;100985.22;6011402;23;20138;-88
2022/12/19 03:00:23;;;;;;;8.10;3.40;;;;;;;9.08;62.72;100988.72;5987943;23;20167;-89
2022/12/19 03:03:06;;;;;;;11.67;3.27;;;;;;;9.06;62.67;100987.88;6011725;23;20190;-89
2022/12/19 03:06:05;;;;;;;13.00;3.70;;;;;;;8.98;64.19;100994.13;6011463;23;20201;-89
2022/12/19 03:08:33;;;;;;;9.33;3.97;;;;;;;9.00;64.12;100994.94;6010489;23;20191;-89
2022/12/19 03:11:12;;;;;;;12.50;5.33;;;;;;;8.97;63.91;100992.38;6011425;23;20179;-89
2022/12/19 03:13:44;;;;;;;12.57;4.93;;;;;;;8.93;64.64;100994.22;6011757;23;20229;-89
2022/12/19 03:16:11;;;;;;;14.40;4.50;;;;;;;8.93;64.83;100990.72;6011762;23;20143;-89
2022/12/19 03:18:37;;;;;;;9.27;4.57;;;;;;;8.99;64.29;100999.31;6011772;23;20186;-88
2022/12/19 03:21:14;;;;;;;13.07;5.67;;;;;;;9.03;63.69;101008.84;5987135;23;20171;-89
2022/12/19 03:23:41;;;;;;;12.50;5.67;;;;;;;9.00;63.21;101008.91;5986655;23;20642;-88
2022/12/19 03:26:11;;;;;;;14.60;5.07;;;;;;;8.97;63.22;101013.31;6011666;23;20574;-88
2022/12/19 03:28:50;;;;;;;11.80;5.87;;;;;;;8.98;63.63;101007.19;6011662;23;20149;-89
2022/12/19 03:31:20;;;;;;;12.50;4.17;;;;;;;8.97;62.75;101013.31;6011969;23;20165;-89
2022/12/19 03:33:51;;;;;;;11.77;5.07;;;;;;;9.03;63.11;101010.59;5986732;23;20154;-89
2022/12/19 03:36:21;;;;;;;9.00;4.27;;;;;;;9.03;62.40;101014.09;5987447;23;20237;-89
2022/12/19 03:38:48;;;;;;;12.33;6.07;;;;;;;8.96;63.55;101017.66;6011665;23;20143;-89
2022/12/19 03:43:07;;;;;;;14.07;6.57;;;;;;;9.06;62.50;101016.66;6011244;23;20165;-89
2022/12/19 03:44:06;;;;;;;14.73;5.77;;;;;;;9.00;62.74;101021.97;6010818;23;20626;-89
2022/12/19 03:46:38;;;;;;;11.27;5.47;;;;;;;8.91;63.01;101024.72;6011155;23;20165;-88
2022/12/19 03:49:04;;;;;;;16.17;7.50;;;;;;;8.93;63.06;101024.72;6011452;23;20144;-89
2022/12/19 03:52:07;;;;;;;19.40;6.87;;;;;;;8.95;63.42;101021.19;6011488;23;20272;-89
2022/12/19 03:54:39;;;;;;;12.17;5.07;;;;;;;8.91;64.04;101024.72;5925480;24;20156;-88
2022/12/19 03:57:13;;;;;;;16.63;6.00;;;;;;;8.93;63.31;101020.34;5925818;24;20578;-89
2022/12/19 03:59:47;;;;;;;14.13;6.37;;;;;;;8.96;63.38;101017.66;5974097;23;20169;-89
2022/12/19 04:02:16;;;;;;;16.27;6.73;;;;;;;8.97;63.99;101027.25;5986514;23;20185;-89
2022/12/19 04:04:45;;;;;;;14.50;5.50;;;;;;;8.97;63.98;101035.09;6004783;23;20207;-89
2022/12/19 04:07:13;;;;;;;10.80;4.57;;;;;;;9.00;63.42;101032.44;5983265;24;20159;-89
2022/12/19 04:09:41;;;;;;;14.70;5.27;;;;;;;9.01;63.59;101038.53;5982955;24;20236;-89
2022/12/19 04:12:14;;;;;;;14.60;5.67;;;;;;;9.03;63.93;101048.09;5982959;24;20184;-89
2022/12/19 04:14:40;;;;;;;13.60;5.67;;;;;;;9.01;63.78;101047.25;6005090;23;20140;-89
2022/12/19 04:17:26;;;;;;;14.50;6.37;;;;;;;9.05;63.67;101048.94;5982950;24;20159;-89
2022/12/19 04:19:57;;;;;;;12.77;6.13;;;;;;;9.03;64.38;101066.41;5953125;24;20171;-89
2022/12/19 04:22:30;;;;;;;15.90;7.03;;;;;;;9.04;64.12;101060.25;5983283;24;20206;-89
2022/12/19 04:24:58;;;;;;;12.83;5.53;;;;;;;9.02;64.64;101071.63;5983098;24;20576;-89
2022/12/19 04:27:24;;;;;;;14.67;5.97;;;;;;;9.07;64.59;101068.06;5981700;24;20166;-89
2022/12/19 04:29:54;;;;;;;12.70;5.73;;;;;;;9.09;64.60;101060.22;5982601;24;20152;-89
2022/12/19 04:32:21;;;;;;;11.87;6.27;;;;;;;9.08;65.00;101067.19;5983593;24;20142;-89
2022/12/19 04:34:47;;;;;;;13.53;6.20;;;;;;;9.02;64.84;101066.41;6005371;23;20154;-89
2022/12/19 04:37:12;;;;;;;12.97;6.80;;;;;;;9.00;64.94;101065.56;6004988;23;20159;-89
2022/12/19 04:39:38;;;;;;;15.53;6.30;;;;;;;9.02;64.87;101074.25;5983148;24;20246;-89
2022/12/19 04:42:03;;;;;;;11.77;5.73;;;;;;;9.02;65.70;101075.13;5982828;24;20230;-89
2022/12/19 04:44:29;;;;;;;16.93;6.60;;;;;;;9.02;65.86;101072.50;6004880;23;20521;-89
2022/12/19 04:46:54;;;;;;;16.77;7.47;;;;;;;9.09;65.35;101071.50;5983414;24;20602;-89
2022/12/19 04:49:20;;;;;;;14.57;6.73;;;;;;;9.09;64.99;101066.28;5983406;24;20163;-89
2022/12/19 04:51:45;;;;;;;27.30;8.30;;;;;;;9.06;65.05;101068.09;5982734;24;20158;-89
2022/12/19 04:54:11;;;;;;;15.63;6.87;;;;;;;9.02;65.00;101066.41;5982575;24;20155;-89
2022/12/19 04:56:36;;;;;;;19.63;8.20;;;;;;;9.07;64.88;101069.81;5982706;24;20165;-89
2022/12/19 04:59:02;;;;;;;19.80;7.37;;;;;;;9.05;64.48;101079.44;5981435;24;20166;-89
2022/12/19 05:01:27;;;;;;;19.60;7.40;;;;;;;9.01;64.86;101076.03;5981486;24;20177;-89
2022/12/19 05:03:53;;;;;;;15.23;7.30;;;;;;;8.98;65.38;101077.81;5981274;24;20577;-89
2022/12/19 05:06:19;;;;;;;20.03;8.63;;;;;;;9.01;64.90;101083.88;6009042;23;20223;-89
2022/12/19 05:08:45;;;;;;;17.10;8.07;;;;;;;9.00;64.50;101082.13;6012564;23;20657;-89
2022/12/19 05:11:15;;;;;;;16.27;7.30;;;;;;;8.96;63.94;101090.91;6012600;23;20161;-89
2022/12/19 05:13:41;;;;;;;20.10;7.50;;;;;;;8.90;63.71;101098.00;6012834;23;20222;-89
2022/12/19 05:16:09;;;;;;;17.30;8.03;;;;;;;8.95;63.43;101101.41;6012787;23;20209;-89
2022/12/19 05:18:36;;;;;;;23.87;7.90;;;;;;;8.97;63.19;101102.22;5986109;23;20184;-90
2022/12/19 05:21:02;;;;;;;21.07;8.03;;;;;;;8.97;62.96;101108.34;5985359;23;20165;-89
2022/12/19 05:23:28;;;;;;;22.73;8.23;;;;;;;8.94;63.36;101102.28;5987412;23;20176;-89
2022/12/19 05:25:57;;;;;;;18.93;8.77;;;;;;;8.95;63.51;101115.34;6012356;23;20487;-89
2022/12/19 05:28:22;;;;;;;19.50;7.50;;;;;;;8.96;64.29;101113.59;6012400;23;20157;-89
2022/12/19 05:30:48;;;;;;;21.63;8.43;;;;;;;8.99;63.31;101119.63;6011123;23;20159;-89
2022/12/19 05:33:13;;;;;;;22.03;9.40;;;;;;;9.03;63.76;101123.94;5987596;23;20197;-89
2022/12/19 05:35:39;;;;;;;18.00;7.13;;;;;;;9.09;62.90;101121.22;6012240;23;20159;-90
2022/12/19 05:38:04;;;;;;;20.63;8.40;;;;;;;9.06;63.31;101129.16;6012602;23;20154;-88
2022/12/19 05:40:30;;;;;;;19.57;7.87;;;;;;;9.06;62.90;101131.75;6012571;23;20224;-89
2022/12/19 05:42:56;;;;;;;20.53;9.33;;;;;;;9.03;63.12;101123.09;5987558;23;20165;-89
2022/12/19 05:45:21;;;;;;;20.93;9.07;;;;;;;9.07;63.13;101124.75;5987465;23;20195;-90
2022/12/19 05:47:47;;;;;;;18.17;7.93;;;;;;;9.05;63.64;101126.53;6012179;23;20528;-89
2022/12/19 05:50:14;;;;;;;18.63;8.53;;;;;;;9.01;63.55;101136.19;6012142;23;20176;-89
2022/12/19 05:52:40;;;;;;;22.67;8.10;;;;;;;8.95;63.06;101136.28;6012432;23;20195;-90
2022/12/19 05:55:07;;;;;;;17.07;7.67;;;;;;;9.00;63.43;101138.81;6012787;23;20153;-89
2022/12/19 05:57:33;;;;;;;21.83;8.70;;;;;;;8.92;63.55;101133.69;5987252;23;20194;-89
2022/12/19 05:59:58;;;;;;;17.23;7.27;;;;;;;8.93;63.97;101140.66;6012098;23;20161;-89
2022/12/19 06:02:24;;;;;;;20.17;7.47;;;;;;;8.92;64.81;101146.78;6011845;23;20165;-89
2022/12/19 06:04:50;;;;;;;15.57;6.83;;;;;;;8.96;64.50;101148.44;6012032;23;20190;-89
2022/12/19 06:07:15;;;;;;;22.27;9.00;;;;;;;8.94;64.29;101150.22;6011966;23;20482;-89
2022/12/19 06:09:41;;;;;;;15.63;6.83;;;;;;;8.94;64.35;101151.97;6011970;23;20566;-89
2022/12/19 06:12:06;;;;;;;19.57;7.90;;;;;;;8.89;64.60;101157.28;6011961;23;20159;-90
2022/12/19 06:14:32;;;;;;;15.83;6.57;;;;;;;8.90;64.60;101161.63;6012221;23;20606;-89
2022/12/19 06:16:57;;;;;;;19.50;7.47;;;;;;;8.60;61.07;101165.50;6012560;23;20154;-89
2022/12/19 06:19:23;;;;;;;14.23;4.30;;;;;;;8.11;56.50;101174.72;6011494;23;20151;-89
2022/12/19 06:21:49;;;;;;;8.80;4.17;;;;;;;8.07;57.14;101173.88;6011859;23;20151;-89
2022/12/19 06:24:14;;;;;;;15.80;5.10;;;;;;;8.05;55.85;101174.78;6011747;23;20179;-89
2022/12/19 06:26:40;;;;;;;7.23;2.90;;;;;;;8.03;56.02;101177.44;6011824;23;20241;-89
2022/12/19 06:29:05;;;;;;;10.00;3.67;;;;;;;8.16;55.95;101180.78;6012531;23;20159;-89
2022/12/19 06:31:31;;;;;;;11.33;4.83;;;;;;;8.13;56.48;101183.41;6011743;23;20152;-90
2022/12/19 06:33:56;;;;;;;6.50;2.87;;;;;;;7.90;54.72;101191.47;6012027;23;20532;-89
2022/12/19 06:36:27;;;;;;;9.50;3.20;;;;;;;7.88;55.02;101193.25;5987163;23;20181;-90
2022/12/19 06:38:54;;;;;;;15.37;4.70;;;;;;;7.96;56.26;101186.22;6012090;23;20138;-89
2022/12/19 06:44:06;;;;;;;5.63;2.40;;;;;;;7.99;55.54;101204.44;6011910;23;20262;-90
2022/12/19 06:46:32;;;;;;;7.23;2.73;;;;;;;8.00;55.72;101200.94;6011608;23;20181;-90
2022/12/19 06:48:58;;;;;;;3.93;1.77;;;;;;;7.80;54.61;101212.44;6012260;23;20152;-90
2022/12/19 06:51:24;;;;;;;9.63;2.07;;;;;;;7.52;54.79;101219.59;5987048;23;20173;-90
2022/12/19 06:53:50;;;;;;;5.27;2.00;;;;;;;7.65;55.29;101221.25;6011740;23;20528;-90
2022/12/19 06:56:16;;;;;;;5.50;1.73;;;;;;;7.63;55.58;101232.59;6011988;23;20154;-90
2022/12/19 06:58:42;;;;;;;16.33;4.13;;;;;;;7.50;55.32;101225.72;6011927;23;20151;-90
2022/12/19 07:01:29;;;;;;;4.13;2.00;;;;;;;7.73;56.81;101229.06;6011496;23;20156;-90
2022/12/19 07:03:55;;;;;;;6.47;3.20;;;;;;;7.69;55.30;101228.19;6010235;23;20191;-90
2022/12/19 07:06:22;;;;;;;6.30;2.50;;;;;;;7.90;54.35;101233.25;6011425;23;20686;-90
2022/12/19 07:08:48;;;;;;;3.90;2.00;;;;;;;7.99;53.70;101237.53;6012578;23;20161;-90
2022/12/19 07:11:13;;;;;;;5.97;2.67;;;;;;;7.81;52.64;101238.53;6011521;23;20152;-90
2022/12/19 07:13:38;;;;;;;5.77;2.03;;;;;;;7.69;52.01;101243.88;5986910;23;20589;-90
2022/12/19 07:16:05;;;;;;;7.13;2.30;;;;;;;7.69;53.13;101250.81;6011397;23;20234;-90
2022/12/19 07:18:34;;;;;;;6.80;2.50;;;;;;;7.43;53.20;101245.78;6011742;23;20185;-90
2022/12/19 07:21:01;;;;;;;5.43;2.33;;;;;;;7.69;53.77;101248.22;6012052;23;20631;-90
2022/12/19 07:23:28;;;;;;;9.13;3.17;;;;;;;7.28;52.08;101257.19;6011277;23;20159;-90
2022/12/19 07:25:53;;;;;;;7.43;2.83;;;;;;;7.34;52.09;101257.13;5986722;23;20266;-90
2022/12/19 07:28:19;;;;;;;5.43;1.87;;;;;;;7.57;51.81;101258.75;6011327;23;20182;-90
2022/12/19 07:30:44;;;;;;;5.80;1.80;;;;;;;7.19;48.53;101261.56;6011183;23;20163;-89
2022/12/19 07:33:10;;;;;;;5.10;1.27;;;;;;;6.94;48.27;101260.81;6011475;23;20156;-89
2022/12/19 07:35:38;;;;;;;4.40;1.90;;;;;;;6.80;48.26;101265.22;6011061;23;20152;-89
2022/12/19 07:38:05;;;;;;;9.77;2.10;;;;;;;7.03;47.88;101260.78;6011087;23;20151;-90
2022/12/19 07:40:31;;;;;;;5.80;1.70;;;;;;;7.05;47.63;101264.22;6011114;23;20158;-90
2022/12/19 07:43:05;;;;;;;12.23;1.73;;;;;;;7.38;46.38;101258.00;6011360;23;20179;-90
2022/12/19 07:45:31;;;;;;;6.53;2.17;;;;;;;7.48;45.74;101269.22;6011279;23;20166;-91
2022/12/19 07:48:00;;;;;;;5.80;1.97;;;;;;;7.19;45.71;101261.56;6011316;23;20220;-90
2022/12/19 07:50:26;;;;;;;5.40;1.87;;;;;;;7.27;47.66;101263.25;5986409;23;20233;-90
2022/12/19 07:52:51;;;;;;;8.77;1.93;;;;;;;7.23;45.60;101261.53;6011050;23;20185;-90
2022/12/19 07:55:17;;;;;;;5.27;1.90;;;;;;;7.24;45.20;101265.88;6011011;23;20231;-90
2022/12/19 07:57:42;;;;;;;4.90;1.83;;;;;;;7.29;44.59;101266.72;6011005;23;20571;-90
2022/12/19 08:00:08;;;;;;;9.07;2.10;;;;;;;7.15;45.90;101272.91;6011284;23;20163;-90
2022/12/19 08:02:34;;;;;;;3.87;1.60;;;;;;;7.29;46.09;101271.06;6010878;23;20155;-89
2022/12/19 08:04:59;;;;;;;6.63;2.20;;;;;;;7.44;44.96;101278.84;6010772;23;20190;-91
2022/12/19 08:07:24;;;;;;;5.60;1.90;;;;;;;7.47;44.57;101277.94;5986189;23;20160;-90
2022/12/19 08:09:50;;;;;;;4.10;1.60;;;;;;;7.48;45.01;101279.66;6011211;23;20167;-89
2022/12/19 08:12:15;;;;;;;7.90;2.00;;;;;;;7.71;46.81;101283.88;6011561;23;20222;-90
2022/12/19 08:14:41;;;;;;;3.40;1.57;;;;;;;7.72;44.63;101285.63;6011198;23;20161;-90
2022/12/19 08:17:08;;;;;;;4.60;1.53;;;;;;;7.37;43.30;101288.44;6010847;23;20229;-89
2022/12/19 08:19:33;;;;;;;3.73;1.87;;;;;;;7.51;44.69;101290.97;5986118;23;20163;-90
2022/12/19 08:21:59;;;;;;;4.30;2.00;;;;;;;7.12;43.16;101293.78;5986323;23;20606;-89
2022/12/19 08:24:24;;;;;;;3.10;1.60;;;;;;;6.95;43.88;101298.16;6010978;23;20501;-90
2022/12/19 08:26:50;;;;;;;6.30;1.77;;;;;;;7.32;44.92;101303.25;6009781;23;20155;-89
2022/12/19 08:29:15;;;;;;;3.47;1.37;;;;;;;7.02;44.04;101305.13;6010735;23;20162;-90
2022/12/19 08:31:41;;;;;;;5.27;2.10;;;;;;;7.38;44.22;101294.50;6010697;23;20157;-90
2022/12/19 08:34:06;;;;;;;4.77;1.97;;;;;;;7.41;44.67;101305.81;6010815;23;20486;-90
2022/12/19 08:36:32;;;;;;;5.80;1.70;;;;;;;7.31;42.84;101301.50;6011108;23;20220;-89
2022/12/19 08:38:58;;;;;;;4.97;2.03;;;;;;;7.13;45.38;101298.97;6011372;23;20228;-90
2022/12/19 08:41:23;;;;;;;3.80;1.73;;;;;;;7.03;44.49;101301.63;6011849;23;20229;-89
2022/12/19 08:43:51;;;;;;;7.27;1.80;;;;;;;7.37;44.50;101313.63;6012866;23;20151;-90
2022/12/19 08:46:17;;;;;;;3.73;1.43;;;;;;;7.42;43.93;101304.91;6011406;23;20492;-89
2022/12/19 08:48:43;;;;;;;3.97;2.27;;;;;;;7.47;43.55;101306.66;5987917;23;20169;-89
2022/12/19 08:51:10;;;;;;;10.67;2.83;;;;;;;7.53;42.13;101304.00;6013168;23;20155;-89
2022/12/19 08:53:38;;;;;;;7.03;1.97;;;;;;;7.58;44.12;101300.47;6012532;23;20161;-90
2022/12/19 08:56:16;;;;;;;4.40;1.77;;;;;;;7.61;40.48;101297.84;5987779;23;20158;-89
2022/12/19 08:58:42;;;;;;;6.20;2.30;;;;;;;7.32;40.95;101290.19;6012821;23;20145;-90
2022/12/19 09:01:13;;;;;;;7.80;2.77;;;;;;;7.59;41.83;101286.56;6012508;23;20150;-90
2022/12/19 09:03:39;;;;;;;7.67;2.57;;;;;;;7.54;42.33;101285.72;6012411;23;20175;-90
2022/12/19 09:06:08;;;;;;;5.30;1.73;;;;;;;7.41;40.42;101289.28;6012387;23;20178;-89
2022/12/19 09:08:34;;;;;;;10.10;3.47;;;;;;;7.65;41.06;101283.91;5987710;23;20591;-89
2022/12/19 09:11:05;;;;;;;6.83;2.33;;;;;;;7.78;41.64;101280.31;6012311;23;20168;-90
2022/12/19 09:13:31;;;;;;;6.80;2.17;;;;;;;7.88;41.17;101279.41;5987665;23;20154;-90
2022/12/19 09:16:04;;;;;;;6.10;1.37;;;;;;;7.74;41.08;101275.16;6012711;23;20185;-89
2022/12/19 09:18:30;;;;;;;6.30;1.87;;;;;;;7.54;41.65;101275.28;6012970;23;20155;-91
2022/12/19 09:20:56;;;;;;;4.70;1.40;;;;;;;7.51;40.43;101277.91;6012296;23;20182;-90
2022/12/19 09:23:23;;;;;;;7.80;2.43;;;;;;;7.78;41.23;101279.50;6012202;23;20152;-90
2022/12/19 09:25:49;;;;;;;5.10;2.10;;;;;;;7.92;41.61;101268.03;6012186;23;20646;-90
2022/12/19 09:28:14;;;;;;;8.77;2.50;;;;;;;8.09;42.21;101270.53;6012240;23;20152;-90
2022/12/19 09:30:40;;;;;;;5.07;1.90;;;;;;;8.18;42.86;101274.78;6012170;23;20577;-91
2022/12/19 09:33:05;;;;;;;6.03;2.23;;;;;;;8.03;40.23;101271.44;6012131;23;20212;-89
2022/12/19 09:35:31;;;;;;;4.60;1.70;;;;;;;7.81;41.08;101274.22;6012409;23;20157;-90
2022/12/19 09:37:56;;;;;;;4.13;1.93;;;;;;;8.01;41.48;101272.34;5987540;23;20195;-90
2022/12/19 09:40:22;;;;;;;6.93;2.40;;;;;;;8.13;42.28;101269.63;5987618;23;20574;-90
2022/12/19 09:43:05;;;;;;;6.00;2.53;;;;;;;8.08;41.83;101258.34;6012735;23;20151;-90
2022/12/19 09:45:36;;;;;;;5.27;1.97;;;;;;;8.14;42.37;101260.03;6010728;23;20634;-90
2022/12/19 09:48:02;;;;;;;4.10;1.67;;;;;;;8.17;42.11;101263.50;5987450;23;20217;-90
2022/12/19 09:50:49;;;;;;;4.00;1.97;;;;;;;8.41;42.71;101250.22;6011833;23;20572;-89
2022/12/19 09:53:22;;;;;;;6.87;1.90;;;;;;;8.66;42.46;101253.44;5986762;23;20392;-90
2022/12/19 09:55:50;;;;;;;4.47;1.70;;;;;;;8.32;41.74;101250.31;6011994;23;20509;-90
2022/12/19 09:58:45;;;;;;;5.63;2.20;;;;;;;7.94;42.27;101261.06;6011955;23;20234;-91
2022/12/19 10:01:30;;;;;;;6.30;2.83;;;;;;;8.00;42.15;101252.31;5993453;23;20246;-90
2022/12/19 10:04:05;;;;;;;9.13;2.50;;;;;;;8.34;43.29;101237.22;5987028;23;20197;-89
2022/12/19 10:06:31;;;;;;;3.83;1.83;;;;;;;8.27;42.58;101232.94;5984163;24;20156;-90
2022/12/19 10:08:59;;;;;;;7.33;2.30;;;;;;;8.35;42.59;101237.22;5983787;24;20156;-91
2022/12/19 10:11:43;;;;;;;4.97;2.70;;;;;;;8.42;42.15;101227.56;5983748;24;20192;-89
2022/12/19 10:15:01;;;;;;;8.73;2.53;;;;;;;8.15;41.07;101228.66;5960350;24;20162;-89
2022/12/19 10:17:39;;;;;;;8.50;2.83;;;;;;;8.26;41.57;101231.16;5938455;24;20161;-90
2022/12/19 10:20:19;;;;;;;5.13;2.17;;;;;;;7.91;41.75;101221.91;5959231;24;20153;-90
2022/12/19 10:23:02;;;;;;;5.90;2.53;;;;;;;8.29;42.84;101215.50;5959231;24;20203;-90
2022/12/19 10:25:41;;;;;;;5.27;2.33;;;;;;;8.45;43.06;101214.47;5959198;24;20211;-90
2022/12/19 10:28:10;;;;;;;5.53;2.43;;;;;;;8.10;42.95;101206.94;5959264;24;20151;-91
2022/12/19 10:30:46;;;;;;;4.40;2.00;;;;;;;8.26;41.59;101216.38;5959204;24;20166;-91
2022/12/19 10:33:21;;;;;;;5.47;2.17;;;;;;;8.15;43.05;101215.59;5983906;24;20239;-90
2022/12/19 10:35:55;;;;;;;7.33;2.10;;;;;;;8.13;42.11;101212.16;5960012;24;20575;-89
2022/12/19 10:38:34;;;;;;;5.63;2.07;;;;;;;8.35;42.21;101215.44;5959267;24;20171;-90
2022/12/19 10:41:09;;;;;;;4.63;1.80;;;;;;;8.04;41.95;101209.63;5983898;24;20140;-91
2022/12/19 10:43:57;;;;;;;6.67;2.60;;;;;;;8.16;40.94;101208.63;5983727;24;20563;-90
2022/12/19 10:46:39;;;;;;;6.70;2.43;;;;;;;8.07;42.76;101205.22;5983706;24;20176;-91
2022/12/19 10:49:12;;;;;;;7.03;2.63;;;;;;;8.20;42.26;101200.75;5958949;24;20179;-91
2022/12/19 10:51:37;;;;;;;7.80;2.13;;;;;;;8.35;43.52;101197.16;5983597;24;20163;-90
2022/12/19 10:54:03;;;;;;;8.50;2.60;;;;;;;8.29;41.29;101192.88;5959008;24;20495;-90
2022/12/19 10:56:30;;;;;;;7.90;2.10;;;;;;;8.01;41.80;101194.00;5958959;24;20162;-90
2022/12/19 10:58:57;;;;;;;6.87;2.70;;;;;;;7.98;43.89;101187.06;5959086;24;20163;-91
2022/12/19 11:01:28;;;;;;;3.67;1.97;;;;;;;8.32;42.11;101189.34;5958983;24;20161;-90
2022/12/19 11:04:16;;;;;;;7.40;2.20;;;;;;;8.33;41.18;101180.63;5982898;24;20156;-90
2022/12/19 11:06:45;;;;;;;7.60;2.50;;;;;;;8.69;42.10;101179.34;5983067;24;20172;-91
2022/12/19 11:09:17;;;;;;;10.70;2.77;;;;;;;8.88;41.65;101170.38;5983515;24;20651;-90
2022/12/19 11:11:47;;;;;;;9.77;2.77;;;;;;;8.73;42.49;101170.56;5983787;24;20147;-91
2022/12/19 11:14:27;;;;;;;4.43;1.87;;;;;;;8.88;41.40;101173.00;5983253;24;20171;-90
2022/12/19 11:16:53;;;;;;;5.87;2.60;;;;;;;8.76;41.65;101171.41;5958869;24;20170;-91
2022/12/19 11:19:28;;;;;;;4.57;1.80;;;;;;;8.96;41.90;101176.38;5958812;24;20232;-91
2022/12/19 11:21:58;;;;;;;2.83;1.60;;;;;;;9.07;41.84;101179.69;5959488;24;20221;-90
2022/12/19 11:24:48;;;;;;;4.90;1.83;;;;;;;9.25;41.47;101180.28;5983333;24;20209;-90
2022/12/19 11:27:39;;;;;;;9.20;2.43;;;;;;;9.16;42.11;101183.06;5982658;24;20158;-91
2022/12/19 11:30:18;;;;;;;7.67;2.60;;;;;;;9.17;41.71;101176.91;5981911;24;20159;-90
2022/12/19 11:32:46;;;;;;;8.93;3.40;;;;;;;9.33;41.65;101179.34;5981913;24;20263;-90
2022/12/19 11:35:15;;;;;;;7.77;2.77;;;;;;;9.48;41.59;101166.00;5958746;24;20169;-91
2022/12/19 11:37:59;;;;;;;6.57;2.60;;;;;;;9.40;41.43;101176.59;5958731;24;20159;-90
2022/12/19 11:40:42;;;;;;;3.43;1.50;;;;;;;9.37;41.48;101181.00;5983946;24;20146;-91
2022/12/19 11:43:12;;;;;;;8.07;2.67;;;;;;;9.23;41.40;101179.47;5982969;24;20139;-90
2022/12/19 11:46:03;;;;;;;5.30;2.50;;;;;;;8.94;40.91;101176.38;5983194;24;20186;-90